Data for 07/26/2005

Time Sea-Level Adjusted Pressure Absolute Pressure Temperature Relative Humidity Dew Point   
(mb) (inHg) (mb) (inHg) (C) (F) (%) (C) (F)
00:05 1026 30.3 855 25.25 9 48.3 89 7.4 45.2
00:10 1026 30.3 855 25.25 9.1 48.3 89 7.4 45.3
00:15 1026 30.3 855 25.25 9.1 48.3 89 7.4 45.2
00:20 1026 30.3 855 25.25 9.1 48.3 89 7.3 45.2
00:25 1026 30.3 855 25.25 9 48.2 89 7.3 45.1
00:30 1026 30.3 855 25.25 9 48.2 88 7.2 44.9
00:35 1026 30.3 855 25.25 9.1 48.4 88 7.2 44.9
00:40 1026 30.3 855 25.25 9.1 48.3 88 7.3 45.1
00:45 1026 30.3 855 25.25 8.9 48.1 89 7.1 44.9
00:50 1026 30.3 855 25.25 8.8 47.8 89 7.1 44.8
00:55 1026 30.3 855 25.25 8.7 47.6 90 7.1 44.8
01:00 1026 30.3 855 25.25 8.6 47.5 90 7 44.7
01:05 1026 30.3 855 25.25 8.5 47.3 90 7 44.7
01:10 1026 30.3 855 25.25 8.5 47.2 91 7.1 44.7
01:15 1026 30.3 855 25.25 8.4 47 91 7 44.6
01:20 1026 30.3 855 25.25 8.2 46.8 92 7 44.6
01:25 1026 30.3 855 25.25 8 46.3 92 6.8 44.2
01:30 1026 30.3 855 25.25 8 46.4 92 6.8 44.2
01:35 1026 30.3 855 25.25 8 46.3 91 6.7 44
01:40 1026 30.3 855 25.25 8.1 46.6 91 6.7 44
01:45 1026 30.3 855 25.25 8.2 46.8 91 6.8 44.2
01:50 1026 30.3 855 25.25 8.1 46.5 91 6.7 44.1
01:55 1026 30.3 855 25.25 8 46.3 92 6.7 44
02:00 1026 30.3 855 25.25 7.8 46 92 6.6 43.9
02:05 1026 30.3 855 25.25 7.7 45.9 93 6.6 43.9
02:10 1026 30.3 855 25.25 7.7 45.9 93 6.6 43.8
02:15 1026 30.3 855 25.25 7.7 45.9 92 6.5 43.8
02:20 1026 30.3 855 25.25 7.8 46 92 6.5 43.8
02:25 1026 30.3 855 25.25 7.8 46.1 92 6.5 43.8
02:30 1026 30.3 855 25.25 7.7 45.9 92 6.5 43.6
02:35 1026 30.3 855 25.25 7.7 45.8 92 6.5 43.7
02:40 1026 30.3 855 25.25 7.7 45.9 92 6.4 43.6
02:45 1026 30.3 855 25.25 7.8 46 92 6.5 43.8
02:50 1026 30.3 855 25.25 7.9 46.1 91 6.5 43.8
02:55 1026 30.3 855 25.25 8.2 46.7 90 6.6 43.8
03:00 1026 30.3 855 25.25 8.4 47.1 88 6.6 43.9
03:05 1026 30.3 855 25.25 8.2 46.8 89 6.6 43.8
03:10 1026 30.3 855 25.25 8.1 46.5 90 6.5 43.7
03:15 1026 30.3 855 25.25 7.9 46.2 90 6.4 43.5
03:20 1026 30.3 855 25.25 7.9 46.2 91 6.5 43.6
03:25 1026 30.3 855 25.25 7.8 46.1 90 6.3 43.4
03:30 1026 30.3 855 25.25 7.9 46.2 91 6.4 43.6
03:35 1026 30.3 855 25.25 7.9 46.1 91 6.4 43.6
03:40 1026 30.3 855 25.25 7.7 45.9 91 6.3 43.3
03:45 1026 30.3 855 25.25 7.9 46.3 90 6.4 43.5
03:50 1026 30.3 855 25.25 8 46.3 90 6.5 43.6
03:55 1026 30.3 855 25.25 8 46.4 90 6.5 43.7
04:00 1026 30.3 855 25.25 8.1 46.5 90 6.6 43.8
04:05 1026 30.3 855 25.25 7.9 46.2 90 6.4 43.6
04:10 1026 30.3 855 25.25 7.8 46 91 6.4 43.6
04:15 1026 30.3 855 25.25 7.8 46 91 6.4 43.6
04:20 1026 30.3 855 25.25 7.7 45.9 91 6.4 43.5
04:25 1026 30.3 855 25.25 7.7 45.9 92 6.5 43.7
04:30 1026 30.3 855 25.25 7.7 45.9 92 6.5 43.7
04:35 1026 30.3 855 25.25 7.7 45.9 92 6.5 43.6
04:40 1026 30.3 855 25.25 7.8 46 92 6.5 43.6
04:45 1026 30.3 855 25.25 7.7 45.9 91 6.4 43.5
04:50 1026 30.3 855 25.25 7.6 45.6 92 6.3 43.3
04:55 1026 30.3 855 25.25 7.6 45.7 92 6.3 43.4
05:00 1026 30.3 855 25.25 7.6 45.8 92 6.4 43.6
05:05 1026 30.3 856 25.28 7.6 45.7 92 6.4 43.5
05:10 1026 30.3 856 25.28 7.5 45.5 92 6.3 43.4
05:15 1026 30.3 856 25.28 7.4 45.4 93 6.3 43.4
05:20 1026 30.3 856 25.28 7.6 45.7 92 6.3 43.3
05:25 1026 30.3 856 25.28 7.6 45.6 92 6.4 43.5
05:30 1026 30.3 856 25.28 7.4 45.4 93 6.4 43.5
05:35 1026 30.3 856 25.28 7.5 45.4 93 6.4 43.5
05:40 1026 30.3 856 25.28 7.4 45.4 93 6.4 43.5
05:45 1026 30.3 856 25.28 7.3 45.1 94 6.3 43.4
05:50 1026 30.3 856 25.28 7.2 44.9 94 6.3 43.3
05:55 1026 30.3 856 25.28 7.2 44.9 94 6.2 43.2
06:00 1026 30.3 856 25.28 7.2 45 92 6.1 43
06:05 1026 30.3 856 25.28 7.4 45.4 90 6 42.7
06:10 1027 30.33 856 25.28 7.5 45.4 90 6 42.8
06:15 1027 30.33 856 25.28 7.5 45.4 90 6 42.8
06:20 1027 30.33 856 25.28 7.4 45.3 91 6 42.8
06:25 1027 30.33 856 25.28 7.5 45.5 90 5.9 42.6
06:30 1027 30.33 856 25.28 7.6 45.8 89 6 42.8
06:35 1027 30.33 856 25.28 7.7 45.9 89 6 42.7
06:40 1027 30.33 856 25.28 7.7 45.8 89 6.1 42.9
06:45 1027 30.33 856 25.28 7.6 45.6 90 6 42.8
06:50 1027 30.33 856 25.28 7.6 45.7 89 5.9 42.6
06:55 1027 30.33 856 25.28 7.9 46.2 88 6 42.8
07:00 1027 30.33 856 25.28 8.2 46.7 87 6 42.9
07:05 1027 30.33 856 25.28 8.3 46.9 86 6.1 42.9
07:10 1027 30.33 856 25.28 8.5 47.3 85 6.2 43.1
07:15 1027 30.33 856 25.28 8.7 47.7 84 6.2 43.2
07:20 1027 30.33 856 25.28 9 48.3 83 6.3 43.4
07:25 1027 30.33 856 25.28 9.1 48.4 83 6.4 43.6
07:30 1027 30.33 856 25.28 9.1 48.3 84 6.5 43.7
07:35 1027 30.33 856 25.28 9.4 48.9 83 6.7 44
07:40 1027 30.33 856 25.28 9.6 49.2 82 6.7 44
07:45 1027 30.33 856 25.28 9.8 49.7 82 6.9 44.4
07:50 1027 30.33 856 25.28 10 50 81 6.9 44.3
07:55 1027 30.33 856 25.28 10.2 50.3 80 6.8 44.3
08:00 1027 30.33 856 25.28 10.5 50.8 80 7.1 44.8
08:05 1027 30.33 856 25.28 10.7 51.3 79 7.3 45.1
08:10 1027 30.33 857 25.31 10.8 51.5 80 7.4 45.4
08:15 1027 30.33 856 25.28 11.3 52.3 76 7.2 44.9
08:20 1027 30.33 857 25.31 11.3 52.4 77 7.4 45.3
08:25 1027 30.33 856 25.28 11.8 53.3 76 7.7 45.8
08:30 1027 30.33 856 25.28 12.3 54.1 76 8.1 46.6
08:35 1027 30.33 856 25.28 12.3 54.1 76 8.2 46.7
08:40 1027 30.33 857 25.31 12.4 54.3 73 7.8 46
08:45 1027 30.33 857 25.31 12.8 55 73 8.1 46.6
08:50 1027 30.33 857 25.31 12.8 55 72 7.8 46.1
08:55 1027 30.33 856 25.28 12.9 55.2 72 7.9 46.3
09:00 1027 30.33 857 25.31 13.4 56.1 68 7.8 46
09:05 1027 30.33 856 25.28 13.6 56.5 69 8 46.5
09:10 1027 30.33 856 25.28 13.8 56.9 67 7.8 46
09:15 1027 30.33 856 25.28 14.3 57.7 65 7.8 46.1
09:20 1027 30.33 856 25.28 14.4 57.8 65 7.8 46.1
09:25 1027 30.33 856 25.28 14.3 57.8 65 7.9 46.2
09:30 1027 30.33 857 25.31 14.8 58.6 63 7.8 46.1
09:35 1027 30.33 857 25.31 15.3 59.6 61 8 46.4
09:40 1027 30.33 857 25.31 15.4 59.8 62 8.1 46.7
09:45 1028 30.36 857 25.31 15.7 60.3 60 8.1 46.5
09:50 1028 30.36 857 25.31 15.9 60.7 58 7.8 46
09:55 1028 30.36 857 25.31 15.9 60.6 59 7.9 46.2
10:00 1028 30.36 857 25.31 16.1 61 58 8.1 46.5
10:05 1028 30.36 857 25.31 16.4 61.5 60 8.6 47.4
10:10 1028 30.36 857 25.31 16.5 61.8 56 7.8 46.1
10:15 1028 30.36 857 25.31 17.1 62.8 54 7.8 46.1
10:20 1027 30.33 857 25.31 16.7 62.1 57 8.2 46.7
10:25 1027 30.33 857 25.31 16.8 62.2 58 8.5 47.3
10:30 1027 30.33 857 25.31 17.3 63.1 56 8.5 47.3
10:35 1027 30.33 857 25.31 17.2 62.9 57 8.7 47.6
10:40 1027 30.33 856 25.28 16.6 61.9 59 8.7 47.7
10:45 1027 30.33 856 25.28 16.9 62.5 56 8.2 46.8
10:50 1027 30.33 856 25.28 16.8 62.2 57 8.3 46.9
10:55 1027 30.33 856 25.28 17.2 62.9 55 8.1 46.6
11:00 1027 30.33 856 25.28 17.8 64.1 54 8.4 47.1
11:05 1027 30.33 856 25.28 18.2 64.8 51 7.9 46.2
11:10 1027 30.33 857 25.31 17.9 64.2 54 8.5 47.2
11:15 1027 30.33 857 25.31 17.5 63.5 53 8 46.5
11:20 1027 30.33 857 25.31 18.3 65 47 6.9 44.5
11:25 1027 30.33 857 25.31 18.5 65.3 46 6.9 44.5
11:30 1027 30.33 857 25.31 18.9 66 46 7.3 45.2
11:35 1027 30.33 857 25.31 19.3 66.8 44 7 44.6
11:40 1027 30.33 857 25.31 19.1 66.4 46 7.3 45.2
11:45 1027 30.33 856 25.28 19.2 66.5 46 7.4 45.4
11:50 1027 30.33 857 25.31 19.5 67 44 7.2 44.9
11:55 1027 30.33 856 25.28 19 66.2 47 7.6 45.6
12:00 1027 30.33 856 25.28 19 66.3 43 6.4 43.5
12:05 1027 30.33 856 25.28 19.2 66.6 43 6.3 43.4
12:10 1027 30.33 856 25.28 19.3 66.7 43 6.6 43.9
12:15 1027 30.33 856 25.28 19.2 66.6 45 7 44.5
12:20 1027 30.33 856 25.28 18.7 65.6 46 7 44.6
12:25 1027 30.33 856 25.28 18.6 65.6 43 6 42.8
12:30 1027 30.33 856 25.28 18.8 65.8 44 6.5 43.8
12:35 1027 30.33 856 25.28 19.1 66.4 40 5.4 41.8
12:40 1027 30.33 856 25.28 19.6 67.4 39 5.4 41.8
12:45 1027 30.33 856 25.28 19.7 67.5 38 5.2 41.3
12:50 1027 30.33 856 25.28 19.8 67.6 39 5.7 42.2
12:55 1027 30.33 856 25.28 19.9 67.8 39 5.6 42
13:00 1027 30.33 856 25.28 20.2 68.4 35 4.5 40.1
13:05 1027 30.33 856 25.28 20.5 68.9 35 4.5 40.1
13:10 1027 30.33 856 25.28 20.6 69 33 4 39.3
13:15 1027 30.33 856 25.28 20.7 69.3 30 2.5 36.6
13:20 1027 30.33 856 25.28 21 69.8 32 4 39.3
13:25 1027 30.33 856 25.28 20.6 69 31 3 37.4
13:30 1027 30.33 856 25.28 20.5 68.8 32 3.3 38
13:35 1027 30.33 856 25.28 21.1 70 28 2.3 36.2
13:40 1027 30.33 856 25.28 21.3 70.4 28 2.5 36.5
13:45 1027 30.33 856 25.28 21.3 70.3 32 4 39.2
13:50 1027 30.33 856 25.28 21 69.8 32 4 39.2
13:55 1027 30.33 856 25.28 20.9 69.6 31 3.1 37.6
14:00 1027 30.33 856 25.28 20.7 69.2 30 2.8 37.1
14:05 1026 30.3 856 25.28 21.3 70.3 29 2.9 37.2
14:10 1026 30.3 856 25.28 21.8 71.3 27 2.4 36.3
14:15 1026 30.3 856 25.28 22.3 72.1 25 1.3 34.4
14:20 1026 30.3 856 25.28 22.5 72.4 26 2.2 36
14:25 1026 30.3 856 25.28 22.1 71.7 26 1.9 35.4
14:30 1026 30.3 855 25.25 21.7 71.1 25 1 33.9
14:35 1026 30.3 855 25.25 21.7 71 22 -0.8 30.6
14:40 1026 30.3 855 25.25 20.7 69.2 26 0.5 32.9
14:45 1026 30.3 855 25.25 21.3 70.3 26 1.2 34.2
14:50 1026 30.3 855 25.25 22.2 71.9 24 1 33.8
14:55 1026 30.3 855 25.25 21.8 71.2 21 -1.5 29.4
15:00 1026 30.3 855 25.25 22 71.6 25 1 33.8
15:05 1026 30.3 855 25.25 22.4 72.2 19 -1.9 28.5
15:10 1026 30.3 855 25.25 22.2 72 22 -0.1 31.7
15:15 1026 30.3 855 25.25 22 71.5 22 -0.7 30.8
15:20 1026 30.3 855 25.25 22.6 72.7 20 -1 30.1
15:25 1026 30.3 855 25.25 22.5 72.6 16 -4 24.8
15:30 1026 30.3 855 25.25 22.4 72.4 19 -1.9 28.5
15:35 1026 30.3 855 25.25 22.7 72.8 20 -1.3 29.7
15:40 1026 30.3 855 25.25 23 73.4 19 -1.9 28.6
15:45 1026 30.3 855 25.25 23.2 73.7 21 -0.4 31.4
15:50 1026 30.3 855 25.25 23 73.3 21 -0.1 31.9
15:55 1026 30.3 855 25.25 23.1 73.6 20 -0.5 31.1
16:00 1025 30.27 855 25.25 23 73.3 21 -0.5 31.2
16:05 1025 30.27 855 25.25 23.4 74 17 -3 26.7
16:10 1025 30.27 855 25.25 23 73.4 18 -2.1 28.2
16:15 1025 30.27 854 25.22 22.9 73.2 16 -4.2 24.5
16:20 1025 30.27 854 25.22 23.2 73.8 16 -3.6 25.6
16:25 1025 30.27 854 25.22 23.2 73.8 17 -3.3 26.1
16:30 1025 30.27 854 25.22 22.1 71.8 19 -2.6 27.4
16:35 1025 30.27 854 25.22 22.5 72.5 18 -2.7 27.2
16:40 1025 30.27 854 25.22 23.1 73.5 16 -4.1 24.6
16:45 1025 30.27 854 25.22 22.8 73.1 17 -3.3 26.1
16:50 1025 30.27 854 25.22 22.5 72.4 19 -2.2 28
16:55 1025 30.27 854 25.22 22.4 72.2 18 -2.7 27.2
17:00 1025 30.27 854 25.22 22.6 72.6 19 -2.3 27.9
17:05 1025 30.27 854 25.22 22.9 73.1 19 -1.7 28.9
17:10 1025 30.27 854 25.22 22.8 73 20 -1.3 29.6
17:15 1025 30.27 854 25.22 22.4 72.3 20 -1.6 29
17:20 1025 30.27 854 25.22 23.2 73.8 18 -2 28.5
17:25 1025 30.27 854 25.22 23.5 74.2 18 -2.3 27.8
17:30 1024 30.24 854 25.22 23.3 74 18 -2.4 27.8
17:35 1024 30.24 854 25.22 23.7 74.6 19 -1 30.3
17:40 1024 30.24 854 25.22 23 73.3 22 0.3 32.5
17:45 1024 30.24 853 25.19 22.6 72.7 20 -1.2 29.8
17:50 1024 30.24 853 25.19 23.3 73.9 20 -0.9 30.4
17:55 1024 30.24 853 25.19 23.7 74.7 20 -0.4 31.3
18:00 1024 30.24 853 25.19 23.9 75 21 0.3 32.5
18:05 1024 30.24 853 25.19 23.5 74.3 21 0.3 32.6
18:10 1024 30.24 853 25.19 22.9 73.2 22 0.3 32.6
18:15 1024 30.24 853 25.19 22.1 71.8 23 0.2 32.4
18:20 1024 30.24 853 25.19 22.7 72.8 22 0.2 32.3
18:25 1024 30.24 853 25.19 23 73.5 21 -0.1 31.8
18:30 1024 30.24 853 25.19 23 73.5 22 0.4 32.7
18:35 1024 30.24 853 25.19 23.4 74.1 21 0.4 32.6
18:40 1024 30.24 853 25.19 23.6 74.4 23 1.2 34.1
18:45 1024 30.24 853 25.19 23.2 73.8 21 0.1 32.2
18:50 1024 30.24 853 25.19 22.8 73.1 21 -0.4 31.2
18:55 1024 30.24 853 25.19 22.8 73.1 21 -0.4 31.4
19:00 1024 30.24 853 25.19 22.4 72.4 22 -0.4 31.3
19:05 1024 30.24 853 25.19 22.2 72 22 -0.6 30.9
19:10 1023 30.21 853 25.19 22.1 71.8 23 0.1 32.1
19:15 1023 30.21 853 25.19 22.3 72.1 22 -0 32
19:20 1023 30.21 853 25.19 21.7 71 24 0.4 32.7
19:25 1023 30.21 853 25.19 21.6 70.9 24 0.6 33.1
19:30 1023 30.21 853 25.19 21.4 70.4 24 0.2 32.4
19:35 1023 30.21 852 25.16 21.4 70.6 24 0.1 32.2
19:40 1023 30.21 852 25.16 21.5 70.6 25 0.9 33.6
19:45 1023 30.21 852 25.16 21.3 70.4 25 0.7 33.3
19:50 1023 30.21 852 25.16 21.1 69.9 32 3.9 39
19:55 1023 30.21 852 25.16 21 69.8 26 1.1 34
20:00 1023 30.21 852 25.16 20.9 69.6 27 1.4 34.5
20:05 1023 30.21 852 25.16 20.9 69.5 28 1.9 35.4
20:10 1023 30.21 852 25.16 20.8 69.4 29 2.3 36.2
20:15 1023 30.21 852 25.16 20.5 68.9 32 3.6 38.4
20:20 1023 30.21 852 25.16 20.4 68.6 31 3 37.3
20:25 1023 30.21 852 25.16 20.1 68.2 33 3.4 38.2
20:30 1023 30.21 852 25.16 20 68.1 32 2.9 37.3
20:35 1023 30.21 852 25.16 19.9 67.8 33 3.3 37.9
20:40 1023 30.21 852 25.16 19.6 67.3 33 3 37.4
20:45 1023 30.21 852 25.16 19.5 67 33 2.8 37.1
20:50 1023 30.21 852 25.16 19.2 66.6 34 3.3 37.9
20:55 1023 30.21 852 25.16 19.1 66.4 41 5.8 42.4
21:00 1023 30.21 852 25.16 18.8 65.8 42 5.8 42.5
21:05 1023 30.21 852 25.16 18 64.3 45 6 42.7
21:10 1023 30.21 852 25.16 17.5 63.6 47 6.2 43.1
21:15 1023 30.21 852 25.16 17 62.6 51 7 44.6
21:20 1023 30.21 852 25.16 16.3 61.3 50 5.9 42.5
21:25 1023 30.21 852 25.16 16.1 61 45 4.4 39.9
21:30 1023 30.21 852 25.16 16.5 61.7 45 4.7 40.4
21:35 1023 30.21 852 25.16 16.4 61.5 44 4.3 39.8
21:40 1023 30.21 853 25.19 16.2 61.1 46 4.7 40.5
21:45 1023 30.21 852 25.16 15.9 60.6 48 4.9 40.9
21:50 1023 30.21 852 25.16 15.5 59.9 51 5.4 41.7
21:55 1023 30.21 853 25.19 15.1 59.2 52 5.3 41.6
22:00 1023 30.21 853 25.19 14.7 58.5 52 5.2 41.3
22:05 1023 30.21 853 25.19 14.6 58.3 53 5.1 41.2
22:10 1023 30.21 853 25.19 14.6 58.3 52 5.1 41.1
22:15 1023 30.21 853 25.19 14.5 58.1 52 4.9 40.9
22:20 1023 30.21 853 25.19 14.5 58.1 52 4.8 40.6
22:25 1023 30.21 853 25.19 14.5 58 52 4.9 40.9
22:30 1023 30.21 853 25.19 14.3 57.7 53 4.8 40.6
22:35 1023 30.21 853 25.19 14.3 57.7 52 4.8 40.6
22:40 1023 30.21 853 25.19 14.3 57.8 52 4.6 40.3
22:45 1023 30.21 853 25.19 14.4 57.9 50 4.3 39.7
22:50 1023 30.21 853 25.19 14.5 58.2 50 4.2 39.5
22:55 1023 30.21 853 25.19 14.5 58.1 51 4.6 40.3
23:00 1023 30.21 852 25.16 14.3 57.7 52 4.5 40.1
23:05 1023 30.21 852 25.16 14.3 57.7 50 4.2 39.6
23:10 1023 30.21 852 25.16 14.1 57.4 53 4.7 40.4
23:15 1023 30.21 852 25.16 13.9 57 53 4.5 40.1
23:20 1023 30.21 852 25.16 13.9 56.9 51 4.1 39.3
23:25 1023 30.21 852 25.16 14.2 57.5 50 4 39.1
23:30 1023 30.21 852 25.16 14.2 57.5 50 4 39.2
23:35 1023 30.21 852 25.16 14.1 57.3 51 4.2 39.5
23:40 1023 30.21 852 25.16 13.7 56.7 51 4 39.2
23:45 1023 30.21 852 25.16 13.6 56.6 51 3.9 39
23:50 1023 30.21 852 25.16 13.6 56.5 50 3.5 38.3
23:55 1023 30.21 852 25.16 13.8 56.9 48 3 37.4
24:00 1023 30.21 852 25.16 14.1 57.3 50 3.9 38.9